createdAt,value
2022-12-16T00:03:14.172Z,-8.60
2022-12-16T00:08:10.828Z,-8.72
2022-12-16T00:13:10.482Z,-8.83
2022-12-16T00:18:07.130Z,-8.70
2022-12-16T00:23:03.548Z,-8.71
2022-12-16T00:28:00.598Z,-8.82
2022-12-16T00:32:57.032Z,-8.94
2022-12-16T00:37:53.401Z,-8.78
2022-12-16T00:42:49.981Z,-8.78
2022-12-16T00:47:46.682Z,-8.75
2022-12-16T00:52:43.041Z,-8.81
2022-12-16T00:57:39.486Z,-8.80
2022-12-16T01:02:35.949Z,-8.73
2022-12-16T01:07:32.441Z,-8.82
2022-12-16T01:12:28.819Z,-8.95
2022-12-16T01:17:28.185Z,-8.88
2022-12-16T01:22:25.384Z,-8.83
2022-12-16T01:27:21.810Z,-8.91
2022-12-16T01:32:19.438Z,-9.03
2022-12-16T01:37:15.821Z,-9.04
2022-12-16T01:42:16.815Z,-9.22
2022-12-16T01:47:16.447Z,-9.08
2022-12-16T01:52:21.115Z,-8.89
2022-12-16T01:57:22.360Z,-9.10
2022-12-16T02:02:20.494Z,-9.31
2022-12-16T02:07:17.038Z,-9.16
2022-12-16T02:12:20.849Z,-9.31
2022-12-16T02:17:24.417Z,-9.31
2022-12-16T02:22:23.364Z,-9.25
2022-12-16T02:27:31.903Z,-9.17
2022-12-16T02:33:07.442Z,-9.14
2022-12-16T02:38:27.387Z,-9.30
2022-12-16T02:43:43.838Z,-9.35
2022-12-16T02:48:40.280Z,-9.52
2022-12-16T02:53:39.297Z,-9.40
2022-12-16T02:58:46.827Z,-9.58
2022-12-16T03:04:12.672Z,-9.66
2022-12-16T03:09:12.768Z,-9.62
2022-12-16T03:14:11.824Z,-9.42
2022-12-16T03:19:11.716Z,-9.48
2022-12-16T03:24:10.703Z,-9.50
2022-12-16T03:29:26.261Z,-9.56
2022-12-16T03:34:37.605Z,-9.73
2022-12-16T03:39:56.533Z,-9.73
2022-12-16T03:44:53.178Z,-9.70
2022-12-16T03:49:49.839Z,-9.60
2022-12-16T03:54:46.196Z,-9.48
2022-12-16T03:59:42.877Z,-9.47
2022-12-16T04:04:39.256Z,-9.55
2022-12-16T04:09:35.629Z,-9.64
2022-12-16T04:14:53.562Z,-9.75
2022-12-16T04:20:09.302Z,-9.88
2022-12-16T04:25:10.713Z,-9.82
2022-12-16T04:30:19.792Z,-9.82
2022-12-16T04:35:34.764Z,-9.93
2022-12-16T04:40:49.988Z,-9.79
2022-12-16T04:46:05.964Z,-9.94
2022-12-16T04:51:31.519Z,-9.72
2022-12-16T04:56:46.723Z,-9.91
2022-12-16T05:02:02.220Z,-9.71
2022-12-16T05:07:17.122Z,-9.81
2022-12-16T05:12:32.017Z,-9.89
2022-12-16T05:17:47.203Z,-10.22
2022-12-16T05:23:02.272Z,-10.21
2022-12-16T05:28:17.561Z,-9.95
2022-12-16T05:33:33.055Z,-9.90
2022-12-16T05:38:48.414Z,-9.84
2022-12-16T05:44:03.273Z,-9.97
2022-12-16T05:49:18.406Z,-10.01
2022-12-16T05:54:33.684Z,-10.09
2022-12-16T05:59:49.136Z,-10.14
2022-12-16T06:05:04.353Z,-10.30
2022-12-16T06:10:19.172Z,-10.12
2022-12-16T06:15:34.195Z,-9.92
2022-12-16T06:20:49.356Z,-9.87
2022-12-16T06:26:04.301Z,-10.27
2022-12-16T06:31:19.098Z,-10.21
2022-12-16T06:36:34.071Z,-9.92
2022-12-16T06:41:48.808Z,-9.79
2022-12-16T06:47:03.608Z,-9.93
2022-12-16T06:52:18.717Z,-9.83
2022-12-16T06:57:33.803Z,-9.86
2022-12-16T07:02:49.078Z,-9.90
2022-12-16T07:08:08.094Z,-9.87
2022-12-16T07:13:23.258Z,-9.82
2022-12-16T07:18:38.524Z,-9.60
2022-12-16T07:23:53.747Z,-9.58
2022-12-16T07:29:09.555Z,-9.82
2022-12-16T07:34:24.477Z,-9.92
2022-12-16T07:39:41.208Z,-10.09
2022-12-16T07:44:56.428Z,-10.19
2022-12-16T07:50:11.647Z,-9.88
2022-12-16T07:55:27.018Z,-9.83
2022-12-16T08:00:42.091Z,-9.98
2022-12-16T08:05:56.891Z,-9.82
2022-12-16T08:11:11.715Z,-9.54
2022-12-16T08:16:26.971Z,-9.20
2022-12-16T08:21:42.105Z,-9.24
2022-12-16T08:26:57.236Z,-9.18
2022-12-16T08:32:12.763Z,-8.90
2022-12-16T08:37:27.877Z,-8.56
2022-12-16T08:42:42.877Z,-8.34
2022-12-16T08:47:58.032Z,-8.14
2022-12-16T08:53:13.250Z,-7.99
2022-12-16T08:58:28.453Z,-7.74
2022-12-16T09:03:43.935Z,-7.46
2022-12-16T09:09:12.745Z,-7.19
2022-12-16T09:14:27.470Z,-6.83
2022-12-16T09:19:42.358Z,-6.50
2022-12-16T09:24:57.644Z,-6.20
2022-12-16T09:30:12.677Z,-5.92
2022-12-16T09:35:27.919Z,-5.74
2022-12-16T09:40:43.172Z,-5.55
2022-12-16T09:46:07.412Z,-5.36
2022-12-16T09:51:24.767Z,-5.09
2022-12-16T09:56:51.663Z,-4.96
2022-12-16T10:02:20.757Z,-4.73
2022-12-16T10:07:38.637Z,-4.55
2022-12-16T10:13:07.322Z,-4.40
2022-12-16T10:18:32.187Z,-4.26
2022-12-16T10:23:57.470Z,-4.06
2022-12-16T10:29:30.508Z,-3.88
2022-12-16T10:34:53.279Z,-3.68
2022-12-16T10:40:14.437Z,-3.68
2022-12-16T10:45:44.149Z,-3.72
2022-12-16T10:50:59.324Z,-3.75
2022-12-16T10:56:56.214Z,-3.58
2022-12-16T11:02:22.128Z,-3.35
2022-12-16T11:07:57.396Z,-3.30
2022-12-16T11:13:12.173Z,-3.17
2022-12-16T11:18:33.187Z,-2.95
2022-12-16T11:24:08.325Z,-2.77
2022-12-16T11:29:36.174Z,-2.61
2022-12-16T11:34:53.066Z,-2.42
2022-12-16T11:40:07.954Z,-2.21
2022-12-16T11:45:31.070Z,-2.04
2022-12-16T11:50:51.165Z,-1.94
2022-12-16T11:56:15.964Z,-1.77
2022-12-16T12:01:45.038Z,-1.61
2022-12-16T12:07:18.208Z,-1.51
2022-12-16T12:12:52.445Z,-1.34
2022-12-16T12:18:20.468Z,-1.17
2022-12-16T12:23:46.504Z,-1.09
2022-12-16T12:29:22.523Z,-1.00
2022-12-16T12:35:14.912Z,-0.89
2022-12-16T12:40:45.154Z,-0.83
2022-12-16T12:46:20.865Z,-0.76
2022-12-16T12:51:52.881Z,-0.58
2022-12-16T12:57:11.112Z,-0.37
2022-12-16T13:02:33.670Z,-0.40
2022-12-16T13:07:51.307Z,-0.36
2022-12-16T13:13:36.433Z,-0.50
2022-12-16T13:18:52.026Z,-0.49
2022-12-16T13:24:07.064Z,-0.38
2022-12-16T13:29:38.869Z,-0.42
2022-12-16T13:34:53.967Z,-0.49
2022-12-16T13:40:35.496Z,-0.42
2022-12-16T13:46:31.950Z,-0.42
2022-12-16T13:51:56.089Z,-0.43
2022-12-16T13:57:27.698Z,-0.51
2022-12-16T14:02:57.689Z,-0.58
2022-12-16T14:08:13.051Z,-0.68
2022-12-16T14:13:56.030Z,-0.64
2022-12-16T14:19:31.237Z,-0.71
2022-12-16T14:24:46.519Z,-0.75
2022-12-16T14:30:02.638Z,-0.92
2022-12-16T14:35:20.809Z,-1.05
2022-12-16T14:40:46.296Z,-1.26
2022-12-16T14:46:09.426Z,-1.29
2022-12-16T14:51:48.232Z,-1.30
2022-12-16T14:57:03.652Z,-1.44
2022-12-16T15:02:31.554Z,-1.74
2022-12-16T15:07:54.109Z,-2.02
2022-12-16T15:13:25.222Z,-2.10
2022-12-16T15:18:45.637Z,-2.44
2022-12-16T15:24:03.312Z,-2.87
2022-12-16T15:29:18.343Z,-3.07
2022-12-16T15:34:43.765Z,-3.21
2022-12-16T15:40:00.638Z,-3.29
2022-12-16T15:45:15.833Z,-3.42
2022-12-16T15:50:33.435Z,-3.46
2022-12-16T15:56:04.504Z,-3.58
2022-12-16T16:01:20.078Z,-3.74
2022-12-16T16:06:43.929Z,-3.83
2022-12-16T16:11:59.889Z,-3.81
2022-12-16T16:17:15.054Z,-3.99
2022-12-16T16:22:36.965Z,-4.22
2022-12-16T16:27:52.099Z,-4.28
2022-12-16T16:33:07.222Z,-4.24
2022-12-16T16:38:22.110Z,-4.42
2022-12-16T16:43:37.425Z,-4.65
2022-12-16T16:48:52.533Z,-4.94
2022-12-16T16:54:07.767Z,-5.09
2022-12-16T16:59:23.450Z,-5.19
2022-12-16T17:04:39.092Z,-5.16
2022-12-16T17:09:53.937Z,-5.10
2022-12-16T17:15:11.206Z,-5.19
2022-12-16T17:20:27.536Z,-5.14
2022-12-16T17:25:42.514Z,-5.18
2022-12-16T17:30:57.997Z,-5.52
2022-12-16T17:36:13.280Z,-5.60
2022-12-16T17:41:28.304Z,-5.68
2022-12-16T17:46:43.440Z,-5.56
2022-12-16T17:51:58.903Z,-5.70
2022-12-16T17:57:14.169Z,-5.92
2022-12-16T18:02:31.348Z,-6.01
2022-12-16T18:07:46.385Z,-6.12
2022-12-16T18:13:01.206Z,-6.22
2022-12-16T18:18:16.336Z,-6.14
2022-12-16T18:23:32.134Z,-6.09
2022-12-16T18:28:47.229Z,-6.37
2022-12-16T18:34:02.110Z,-6.44
2022-12-16T18:39:16.871Z,-6.40
2022-12-16T18:44:32.365Z,-6.37
2022-12-16T18:49:47.567Z,-6.49
2022-12-16T18:55:04.299Z,-6.75
2022-12-16T19:00:19.062Z,-6.81
2022-12-16T19:05:34.735Z,-6.66
2022-12-16T19:10:49.822Z,-6.73
2022-12-16T19:16:14.857Z,-6.67
2022-12-16T19:21:29.762Z,-6.84
2022-12-16T19:26:45.221Z,-7.04
2022-12-16T19:32:00.400Z,-7.26
2022-12-16T19:37:15.427Z,-7.20
2022-12-16T19:42:30.990Z,-7.26
2022-12-16T19:47:45.786Z,-7.43
2022-12-16T19:53:00.854Z,-7.41
2022-12-16T19:58:15.858Z,-7.41
2022-12-16T20:03:35.244Z,-7.50
2022-12-16T20:08:50.421Z,-7.41
2022-12-16T20:14:06.844Z,-7.43
2022-12-16T20:19:21.732Z,-7.62
2022-12-16T20:24:36.774Z,-7.47
2022-12-16T20:29:51.681Z,-7.61
2022-12-16T20:35:06.536Z,-7.62
2022-12-16T20:40:22.785Z,-7.61
2022-12-16T20:45:38.028Z,-7.59
2022-12-16T20:50:53.535Z,-7.59
2022-12-16T20:56:10.942Z,-7.59
2022-12-16T21:01:26.213Z,-7.67
2022-12-16T21:06:41.510Z,-7.61
2022-12-16T21:11:56.727Z,-7.72
2022-12-16T21:17:11.721Z,-7.70
2022-12-16T21:22:26.758Z,-7.69
2022-12-16T21:27:41.631Z,-7.74
2022-12-16T21:32:56.756Z,-7.92
2022-12-16T21:38:12.642Z,-8.08
2022-12-16T21:43:27.874Z,-8.01
2022-12-16T21:48:42.836Z,-7.92
2022-12-16T21:53:58.645Z,-7.93
2022-12-16T21:59:16.068Z,-8.04
2022-12-16T22:04:31.221Z,-8.23
2022-12-16T22:09:46.137Z,-8.29
2022-12-16T22:15:01.220Z,-8.37
2022-12-16T22:20:16.067Z,-8.43
2022-12-16T22:25:30.933Z,-8.40
2022-12-16T22:30:45.808Z,-8.40
2022-12-16T22:36:01.041Z,-8.79
2022-12-16T22:41:17.003Z,-8.81
2022-12-16T22:46:31.982Z,-8.66
2022-12-16T22:51:46.952Z,-8.62
2022-12-16T22:57:02.725Z,-8.43
2022-12-16T23:02:17.853Z,-8.45
2022-12-16T23:07:32.979Z,-8.43
2022-12-16T23:12:48.267Z,-8.38
2022-12-16T23:18:03.545Z,-8.34
2022-12-16T23:23:18.417Z,-8.34
2022-12-16T23:28:33.175Z,-8.69
2022-12-16T23:33:47.908Z,-8.89
2022-12-16T23:39:02.736Z,-8.88
2022-12-16T23:44:17.707Z,-8.67
2022-12-16T23:49:33.326Z,-8.80
2022-12-16T23:55:04.927Z,-9.13
